createdAt,value
2023-02-06T00:00:08.109Z,100258.94
2023-02-06T00:03:09.630Z,100258.59
2023-02-06T00:06:11.150Z,100255.66
2023-02-06T00:09:12.746Z,100272.69
2023-02-06T00:12:14.227Z,100271.47
2023-02-06T00:15:15.709Z,100275.63
2023-02-06T00:18:17.137Z,100264.59
2023-02-06T00:21:21.577Z,100281.75
2023-02-06T00:24:23.044Z,100269.53
2023-02-06T00:27:24.577Z,100280.84
2023-02-06T00:30:26.246Z,100277.75
2023-02-06T00:33:27.697Z,100270.25
2023-02-06T00:36:29.178Z,100276.09
2023-02-06T00:39:30.695Z,100273.41
2023-02-06T00:42:32.129Z,100277.84
2023-02-06T00:45:33.884Z,100279.44
2023-02-06T00:48:35.586Z,100256.72
2023-02-06T00:51:38.795Z,100261.97
2023-02-06T00:54:40.330Z,100259.38
2023-02-06T00:57:41.789Z,100263.03
2023-02-06T01:00:43.394Z,100257.50
2023-02-06T01:03:44.903Z,100264.97
2023-02-06T01:06:46.375Z,100257.97
2023-02-06T01:09:47.899Z,100259.66
2023-02-06T01:12:49.335Z,100268.72
2023-02-06T01:15:51.265Z,100281.31
2023-02-06T01:18:53.021Z,100293.13
2023-02-06T01:21:54.493Z,100296.97
2023-02-06T01:24:55.988Z,100294.13
2023-02-06T01:27:57.471Z,100300.66
2023-02-06T01:30:59.036Z,100296.41
2023-02-06T01:34:00.999Z,100308.69
2023-02-06T01:37:02.556Z,100293.31
2023-02-06T01:40:08.732Z,100290.31
2023-02-06T01:43:17.680Z,100290.50
2023-02-06T01:46:19.182Z,100273.50
2023-02-06T01:49:34.104Z,100281.13
2023-02-06T01:52:35.685Z,100266.41
2023-02-06T01:55:37.640Z,100265.94
2023-02-06T01:58:41.348Z,100258.56
2023-02-06T02:01:42.887Z,100264.63
2023-02-06T02:04:44.385Z,100258.75
2023-02-06T02:08:00.942Z,100262.31
2023-02-06T02:11:03.669Z,100265.72
2023-02-06T02:14:06.203Z,100263.47
2023-02-06T02:17:52.174Z,100255.13
2023-02-06T02:21:16.919Z,100262.13
2023-02-06T02:24:39.587Z,100253.06
2023-02-06T02:27:59.350Z,100247.84
2023-02-06T02:31:38.797Z,100245.28
2023-02-06T02:34:57.645Z,100240.03
2023-02-06T02:38:08.389Z,100255.31
2023-02-06T02:41:14.444Z,100242.84
2023-02-06T02:44:19.692Z,100249.72
2023-02-06T02:47:23.402Z,100241.44
2023-02-06T02:50:24.881Z,100245.19
2023-02-06T02:53:26.787Z,100240.09
2023-02-06T02:56:28.271Z,100244.13
2023-02-06T02:59:34.185Z,100253.34
2023-02-06T03:02:36.806Z,100239.31
2023-02-06T03:05:40.701Z,100254.41
2023-02-06T03:08:56.723Z,100250.53
2023-02-06T03:12:24.973Z,100251.22
2023-02-06T03:15:54.160Z,100254.16
2023-02-06T03:19:03.030Z,100251.31
2023-02-06T03:22:04.522Z,100254.59
2023-02-06T03:25:10.258Z,100251.50
2023-02-06T03:28:39.311Z,100258.22
2023-02-06T03:31:55.519Z,100251.22
2023-02-06T03:35:03.734Z,100252.97
2023-02-06T03:38:05.169Z,100249.63
2023-02-06T03:41:06.600Z,100255.56
2023-02-06T03:44:09.545Z,100256.13
2023-02-06T03:47:11.000Z,100254.69
2023-02-06T03:50:12.541Z,100267.56
2023-02-06T03:53:14.013Z,100271.47
2023-02-06T03:56:48.623Z,100271.47
2023-02-06T03:59:50.157Z,100275.81
2023-02-06T04:02:51.599Z,100269.25
2023-02-06T04:05:53.064Z,100262.59
2023-02-06T04:08:54.551Z,100269.72
2023-02-06T04:11:56.025Z,100261.34
2023-02-06T04:14:57.516Z,100262.59
2023-02-06T04:18:01.296Z,100270.59
2023-02-06T04:21:04.914Z,100269.59
2023-02-06T04:24:06.406Z,100260.66
2023-02-06T04:27:13.323Z,100261.34
2023-02-06T04:30:15.669Z,100259.66
2023-02-06T04:33:17.129Z,100261.75
2023-02-06T04:36:19.204Z,100262.16
2023-02-06T04:39:20.658Z,100254.84
2023-02-06T04:42:22.378Z,100258.34
2023-02-06T04:45:23.831Z,100256.25
2023-02-06T04:48:25.437Z,100253.19
2023-02-06T04:51:26.882Z,100256.03
2023-02-06T04:54:28.348Z,100256.19
2023-02-06T04:57:29.875Z,100254.88
2023-02-06T05:00:31.334Z,100250.06
2023-02-06T05:03:32.869Z,100249.81
2023-02-06T05:06:34.373Z,100255.03
2023-02-06T05:09:35.856Z,100257.25
2023-02-06T05:12:37.380Z,100258.16
2023-02-06T05:15:39.208Z,100266.31
2023-02-06T05:18:41.371Z,100264.91
2023-02-06T05:21:42.876Z,100263.03
2023-02-06T05:24:44.349Z,100268.44
2023-02-06T05:27:45.895Z,100262.50
2023-02-06T05:30:47.422Z,100265.44
2023-02-06T05:33:52.573Z,100253.19
2023-02-06T05:36:54.275Z,100259.56
2023-02-06T05:39:55.752Z,100255.03
2023-02-06T05:42:57.700Z,100257.25
2023-02-06T05:45:59.328Z,100261.97
2023-02-06T05:49:01.052Z,100267.81
2023-02-06T05:52:02.576Z,100268.72
2023-02-06T05:55:04.131Z,100271.38
2023-02-06T05:58:06.426Z,100266.84
2023-02-06T06:01:07.978Z,100270.84
2023-02-06T06:04:09.483Z,100266.75
2023-02-06T06:07:10.986Z,100276.59
2023-02-06T06:10:12.466Z,100282.81
2023-02-06T06:13:13.920Z,100275.88
2023-02-06T06:16:15.431Z,100277.31
2023-02-06T06:19:16.941Z,100280.78
2023-02-06T06:22:18.417Z,100279.72
2023-02-06T06:25:20.452Z,100270.41
2023-02-06T06:28:21.927Z,100271.09
2023-02-06T06:31:23.443Z,100279.63
2023-02-06T06:34:25.736Z,100281.94
2023-02-06T06:37:27.211Z,100279.16
2023-02-06T06:40:28.742Z,100270.03
2023-02-06T06:43:30.317Z,100274.22
2023-02-06T06:46:31.778Z,100275.38
2023-02-06T06:49:33.466Z,100271.97
2023-02-06T06:52:34.956Z,100279.25
2023-02-06T06:55:36.791Z,100274.22
2023-02-06T06:58:38.413Z,100276.13
2023-02-06T07:01:39.875Z,100282.69
2023-02-06T07:04:41.332Z,100293.34
2023-02-06T07:07:42.787Z,100292.63
2023-02-06T07:10:44.382Z,100298.06
2023-02-06T07:13:45.882Z,100293.19
2023-02-06T07:16:47.340Z,100291.03
2023-02-06T07:19:51.396Z,100289.06
2023-02-06T07:22:53.587Z,100282.81
2023-02-06T07:25:56.537Z,100277.59
2023-02-06T07:28:58.015Z,100273.66
2023-02-06T07:31:59.604Z,100269.66
2023-02-06T07:35:01.119Z,100275.69
2023-02-06T07:38:02.559Z,100281.63
2023-02-06T07:41:04.028Z,100288.19
2023-02-06T07:44:05.982Z,100286.63
2023-02-06T07:47:09.289Z,100285.25
2023-02-06T07:50:11.066Z,100286.16
2023-02-06T07:53:12.529Z,100292.25
2023-02-06T07:56:15.552Z,100300.84
2023-02-06T07:59:17.034Z,100304.75
2023-02-06T08:02:18.505Z,100310.84
2023-02-06T08:05:20.020Z,100310.09
2023-02-06T08:08:21.456Z,100305.31
2023-02-06T08:11:25.154Z,100300.34
2023-02-06T08:14:26.918Z,100289.25
2023-02-06T08:17:28.396Z,100292.31
2023-02-06T08:20:30.041Z,100291.75
2023-02-06T08:23:31.554Z,100285.22
2023-02-06T08:26:33.083Z,100292.19
2023-02-06T08:29:40.389Z,100290.47
2023-02-06T08:32:41.830Z,100268.41
2023-02-06T08:35:43.323Z,100280.03
2023-02-06T08:38:44.780Z,100279.16
2023-02-06T08:41:46.308Z,100277.75
2023-02-06T08:44:48.107Z,100280.97
2023-02-06T08:47:50.216Z,100273.66
2023-02-06T08:50:51.749Z,100272.34
2023-02-06T08:53:57.459Z,100272.00
2023-02-06T08:57:00.985Z,100267.47
2023-02-06T09:00:02.658Z,100265.28
2023-02-06T09:03:05.442Z,100273.91
2023-02-06T09:06:10.223Z,100282.97
2023-02-06T09:09:12.291Z,100288.88
2023-02-06T09:12:13.789Z,100292.41
2023-02-06T09:15:15.289Z,100307.72
2023-02-06T09:18:16.837Z,100306.06
2023-02-06T09:21:22.618Z,100315.09
2023-02-06T09:24:24.133Z,100330.56
2023-02-06T09:27:25.650Z,100337.22
2023-02-06T09:30:27.139Z,100344.75
2023-02-06T09:33:28.618Z,100352.94
2023-02-06T09:36:30.390Z,100361.00
2023-02-06T09:39:32.449Z,100354.22
2023-02-06T09:42:38.054Z,100365.75
2023-02-06T09:45:39.505Z,100370.91
2023-02-06T09:48:40.963Z,100388.53
2023-02-06T09:51:55.923Z,100392.41
2023-02-06T09:55:10.055Z,100393.13
2023-02-06T09:58:21.593Z,100408.16
2023-02-06T10:01:31.427Z,100395.13
2023-02-06T10:04:41.982Z,100409.25
2023-02-06T10:08:09.658Z,100431.38
2023-02-06T10:11:17.378Z,100434.91
2023-02-06T10:14:38.533Z,100443.91
2023-02-06T10:17:52.476Z,100447.75
2023-02-06T10:20:56.123Z,100444.84
2023-02-06T10:24:03.349Z,100443.91
2023-02-06T10:27:09.620Z,100446.09
2023-02-06T10:30:19.696Z,100440.81
2023-02-06T10:33:36.093Z,100437.13
2023-02-06T10:36:48.228Z,100440.44
2023-02-06T10:40:27.390Z,100434.75
2023-02-06T10:43:35.487Z,100437.84
2023-02-06T10:46:41.219Z,100438.00
2023-02-06T10:49:46.826Z,100436.56
2023-02-06T10:52:48.430Z,100429.28
2023-02-06T10:55:55.699Z,100429.28
2023-02-06T10:59:10.329Z,100429.19
2023-02-06T11:02:33.177Z,100418.06
2023-02-06T11:05:35.323Z,100410.63
2023-02-06T11:08:40.840Z,100408.75
2023-02-06T11:11:47.947Z,100403.34
2023-02-06T11:14:49.767Z,100405.47
2023-02-06T11:17:51.974Z,100399.00
2023-02-06T11:20:55.713Z,100413.00
2023-02-06T11:24:14.700Z,100402.31
2023-02-06T11:27:18.648Z,100412.47
2023-02-06T11:30:30.266Z,100413.91
2023-02-06T11:33:54.184Z,100414.69
2023-02-06T11:36:59.548Z,100408.34
2023-02-06T11:40:15.141Z,100414.69
2023-02-06T11:43:21.751Z,100404.69
2023-02-06T11:46:27.887Z,100408.47
2023-02-06T11:49:29.441Z,100402.88
2023-02-06T11:52:32.915Z,100400.00
2023-02-06T11:55:35.241Z,100401.69
2023-02-06T11:58:37.075Z,100397.09
2023-02-06T12:01:43.731Z,100386.72
2023-02-06T12:04:45.182Z,100384.66
2023-02-06T12:07:52.252Z,100381.53
2023-02-06T12:10:59.065Z,100386.72
2023-02-06T12:14:21.945Z,100378.59
2023-02-06T12:17:36.042Z,100379.88
2023-02-06T12:20:47.406Z,100373.97
2023-02-06T12:23:50.235Z,100362.59
2023-02-06T12:26:51.769Z,100365.53
2023-02-06T12:29:59.249Z,100354.81
2023-02-06T12:33:15.670Z,100352.56
2023-02-06T12:36:22.389Z,100354.81
2023-02-06T12:39:30.224Z,100348.84
2023-02-06T12:42:50.291Z,100341.34
2023-02-06T12:45:54.371Z,100325.81
2023-02-06T12:49:22.311Z,100325.16
2023-02-06T12:52:37.790Z,100314.66
2023-02-06T12:55:42.556Z,100319.19
2023-02-06T12:58:43.847Z,100312.22
2023-02-06T13:02:00.985Z,100317.03
2023-02-06T13:05:05.748Z,100318.50
2023-02-06T13:08:41.154Z,100329.41
2023-02-06T13:11:42.633Z,100321.88
2023-02-06T13:14:52.470Z,100315.19
2023-02-06T13:17:55.639Z,100300.63
2023-02-06T13:21:28.548Z,100302.53
2023-02-06T13:24:30.085Z,100291.97
2023-02-06T13:27:38.790Z,100287.41
2023-02-06T13:30:40.438Z,100287.75
2023-02-06T13:33:44.222Z,100284.09
2023-02-06T13:36:50.046Z,100286.34
2023-02-06T13:40:23.412Z,100296.88
2023-02-06T13:43:26.518Z,100289.75
2023-02-06T13:47:01.775Z,100303.03
2023-02-06T13:50:34.751Z,100301.09
2023-02-06T13:54:10.441Z,100294.97
2023-02-06T13:57:41.390Z,100301.66
2023-02-06T14:00:43.724Z,100304.09
2023-02-06T14:03:47.597Z,100311.13
2023-02-06T14:06:56.827Z,100302.06
2023-02-06T14:10:05.189Z,100301.72
2023-02-06T14:13:25.402Z,100297.78
2023-02-06T14:17:03.883Z,100290.06
2023-02-06T14:20:08.213Z,100282.22
2023-02-06T14:23:16.354Z,100292.31
2023-02-06T14:26:48.635Z,100288.75
2023-02-06T14:30:06.665Z,100301.75
2023-02-06T14:33:17.489Z,100317.06
2023-02-06T14:36:25.078Z,100317.00
2023-02-06T14:39:41.609Z,100321.31
2023-02-06T14:42:43.541Z,100321.06
2023-02-06T14:46:05.680Z,100324.53
2023-02-06T14:49:16.441Z,100329.63
2023-02-06T14:52:20.011Z,100313.78
2023-02-06T14:55:37.036Z,100322.03
2023-02-06T14:58:38.740Z,100314.66
2023-02-06T15:01:44.628Z,100330.72
2023-02-06T15:04:47.511Z,100329.13
2023-02-06T15:08:02.592Z,100332.06
2023-02-06T15:11:06.656Z,100350.13
2023-02-06T15:14:20.163Z,100351.66
2023-02-06T15:17:23.084Z,100340.78
2023-02-06T15:20:25.963Z,100341.66
2023-02-06T15:23:40.011Z,100346.16
2023-02-06T15:27:00.178Z,100347.00
2023-02-06T15:30:02.900Z,100349.88
2023-02-06T15:33:08.877Z,100347.19
2023-02-06T15:36:28.512Z,100359.34
2023-02-06T15:39:29.970Z,100355.91
2023-02-06T15:42:31.491Z,100357.44
2023-02-06T15:45:35.849Z,100360.25
2023-02-06T15:48:48.806Z,100351.69
2023-02-06T15:51:54.031Z,100343.84
2023-02-06T15:54:58.929Z,100352.53
2023-02-06T15:58:02.030Z,100351.66
2023-02-06T16:01:05.847Z,100336.94
2023-02-06T16:04:37.260Z,100353.16
2023-02-06T16:07:39.146Z,100344.41
2023-02-06T16:10:40.742Z,100338.25
2023-02-06T16:13:42.391Z,100345.25
2023-02-06T16:16:43.987Z,100346.41
2023-02-06T16:19:48.524Z,100348.63
2023-02-06T16:22:51.436Z,100350.94
2023-02-06T16:26:00.957Z,100356.09
2023-02-06T16:29:08.475Z,100351.19
2023-02-06T16:32:18.526Z,100354.09
2023-02-06T16:35:20.117Z,100351.44
2023-02-06T16:38:21.741Z,100360.97
2023-02-06T16:41:29.821Z,100355.09
2023-02-06T16:44:43.968Z,100361.72
2023-02-06T16:47:46.605Z,100356.81
2023-02-06T16:50:48.134Z,100353.44
2023-02-06T16:53:49.671Z,100361.03
2023-02-06T16:56:51.558Z,100374.06
2023-02-06T16:59:53.164Z,100372.22
2023-02-06T17:02:54.704Z,100368.41
2023-02-06T17:05:56.320Z,100363.06
2023-02-06T17:09:02.027Z,100369.81
2023-02-06T17:12:03.682Z,100377.88
2023-02-06T17:15:05.505Z,100365.19
2023-02-06T17:18:07.037Z,100355.59
2023-02-06T17:21:11.115Z,100362.97
2023-02-06T17:24:12.650Z,100352.59
2023-02-06T17:27:17.688Z,100357.75
2023-02-06T17:30:20.416Z,100355.78
2023-02-06T17:33:21.736Z,100355.06
2023-02-06T17:36:29.375Z,100365.72
2023-02-06T17:39:30.889Z,100353.25
2023-02-06T17:42:32.655Z,100354.84
2023-02-06T17:45:35.076Z,100358.91
2023-02-06T17:48:39.290Z,100346.28
2023-02-06T17:51:40.982Z,100345.00
2023-02-06T17:54:42.924Z,100350.34
2023-02-06T17:57:44.380Z,100327.81
2023-02-06T18:00:49.427Z,100313.91
2023-02-06T18:03:50.968Z,100315.59
2023-02-06T18:06:52.721Z,100315.59
2023-02-06T18:09:54.256Z,100309.22
2023-02-06T18:12:55.692Z,100294.28
2023-02-06T18:15:57.265Z,100291.44
2023-02-06T18:18:58.824Z,100286.72
2023-02-06T18:22:00.362Z,100288.22
2023-02-06T18:25:05.078Z,100270.75
2023-02-06T18:28:06.613Z,100266.47
2023-02-06T18:31:20.575Z,100273.06
2023-02-06T18:34:22.021Z,100263.38
2023-02-06T18:37:23.525Z,100270.28
2023-02-06T18:40:25.009Z,100262.50
2023-02-06T18:43:27.848Z,100265.75
2023-02-06T18:46:29.393Z,100263.72
2023-02-06T18:49:30.833Z,100267.88
2023-02-06T18:52:32.305Z,100255.53
2023-02-06T18:55:35.040Z,100245.16
2023-02-06T18:58:36.388Z,100241.28
2023-02-06T19:01:38.105Z,100231.75
2023-02-06T19:04:40.568Z,100230.00
2023-02-06T19:07:42.141Z,100234.06
2023-02-06T19:10:43.695Z,100236.75
2023-02-06T19:13:45.342Z,100233.38
2023-02-06T19:16:49.214Z,100231.75
2023-02-06T19:19:50.809Z,100235.28
2023-02-06T19:22:53.582Z,100231.28
2023-02-06T19:25:55.039Z,100212.66
2023-02-06T19:28:57.461Z,100190.66
2023-02-06T19:31:59.288Z,100184.16
2023-02-06T19:35:00.764Z,100186.28
2023-02-06T19:38:03.460Z,100189.72
2023-02-06T19:41:08.170Z,100177.59
2023-02-06T19:44:11.136Z,100171.31
2023-02-06T19:47:12.609Z,100176.38
2023-02-06T19:50:14.515Z,100184.38
2023-02-06T19:53:17.032Z,100180.63
2023-02-06T19:56:47.797Z,100174.53
2023-02-06T19:59:49.249Z,100172.38
2023-02-06T20:02:50.877Z,100178.94
2023-02-06T20:05:52.342Z,100175.22
2023-02-06T20:08:53.846Z,100175.84
2023-02-06T20:11:55.871Z,100182.41
2023-02-06T20:14:59.329Z,100176.19
2023-02-06T20:18:00.770Z,100171.22
2023-02-06T20:21:02.303Z,100173.13
2023-02-06T20:24:05.604Z,100158.06
2023-02-06T20:27:08.469Z,100156.88
2023-02-06T20:30:10.472Z,100156.56
2023-02-06T20:33:12.149Z,100149.47
2023-02-06T20:36:15.481Z,100154.00
2023-02-06T20:39:17.076Z,100150.47
2023-02-06T20:42:22.202Z,100142.56
2023-02-06T20:45:23.644Z,100140.53
2023-02-06T20:48:25.103Z,100141.94
2023-02-06T20:51:27.226Z,100144.25
2023-02-06T20:54:30.087Z,100130.75
2023-02-06T20:57:34.596Z,100119.41
2023-02-06T21:00:37.241Z,100122.22
2023-02-06T21:03:38.904Z,100133.22
2023-02-06T21:06:40.527Z,100125.50
2023-02-06T21:09:42.198Z,100122.22
2023-02-06T21:12:43.662Z,100118.97
2023-02-06T21:15:54.696Z,100131.66
2023-02-06T21:18:57.217Z,100124.38
2023-02-06T21:21:58.831Z,100125.78
2023-02-06T21:25:00.395Z,100119.94
2023-02-06T21:28:01.929Z,100115.50
2023-02-06T21:31:06.014Z,100108.22
2023-02-06T21:34:13.516Z,100104.16
2023-02-06T21:37:15.062Z,100092.59
2023-02-06T21:40:17.038Z,100088.91
2023-02-06T21:43:18.514Z,100073.34
2023-02-06T21:46:20.137Z,100079.72
2023-02-06T21:49:21.737Z,100087.03
2023-02-06T21:52:23.224Z,100081.19
2023-02-06T21:55:25.281Z,100067.94
2023-02-06T21:58:26.758Z,100063.81
2023-02-06T22:01:29.846Z,100064.50
2023-02-06T22:04:31.354Z,100067.44
2023-02-06T22:07:36.706Z,100093.16
2023-02-06T22:10:38.218Z,100113.28
2023-02-06T22:13:40.098Z,100119.66
2023-02-06T22:16:41.651Z,100131.44
2023-02-06T22:19:43.122Z,100136.63
2023-02-06T22:22:44.595Z,100121.28
2023-02-06T22:25:47.904Z,100121.97
2023-02-06T22:28:49.363Z,100131.13
2023-02-06T22:31:50.984Z,100147.25
2023-02-06T22:34:53.904Z,100165.09
2023-02-06T22:37:56.275Z,100169.91
2023-02-06T22:41:01.939Z,100177.44
2023-02-06T22:44:03.450Z,100165.66
2023-02-06T22:47:04.920Z,100163.66
2023-02-06T22:50:06.487Z,100162.69
2023-02-06T22:53:28.384Z,100169.09
2023-02-06T22:56:31.676Z,100165.28
2023-02-06T22:59:33.196Z,100162.09
2023-02-06T23:02:34.871Z,100158.53
2023-02-06T23:05:36.743Z,100163.31
2023-02-06T23:08:38.413Z,100157.00
2023-02-06T23:11:39.906Z,100149.72
2023-02-06T23:14:41.385Z,100153.28
2023-02-06T23:17:42.830Z,100148.56
2023-02-06T23:20:44.452Z,100141.59
2023-02-06T23:23:45.903Z,100162.31
2023-02-06T23:26:48.931Z,100161.09
2023-02-06T23:29:50.412Z,100161.72
2023-02-06T23:32:51.877Z,100165.16
2023-02-06T23:35:53.322Z,100168.72
2023-02-06T23:38:54.837Z,100165.88
2023-02-06T23:41:56.321Z,100160.50
2023-02-06T23:44:57.784Z,100167.59
2023-02-06T23:47:59.301Z,100161.09
2023-02-06T23:51:01.784Z,100158.94
2023-02-06T23:54:03.952Z,100162.78
2023-02-06T23:57:05.403Z,100162.88
